Terminal Aerodrome Forecast
Issued by NWS Charleston, WV

Home | Current Version | Previous Version | Text Only | Print | Product List | Glossary On
Versions: 1 2 3 4 5 6 7 8 9 10 11 12 13 14 15 16 17 18 19 20 21 22 23
000
FTUS41 KRLX 231138
TAFEKN
TAF
KEKN 231138Z 2312/2412 16005KT P6SM BKN100
     FM231400 16011G24KT P6SM BKN080
     FM232000 15014G30KT P6SM SHRA OVC050
     FM232200 15014G25KT 5SM SHRA OVC035
     FM240100 18010G16KT 2SM SHRA SCT015 OVC035
     FM240200 20007KT P6SM SHRA OVC035
     FM240800 23006KT P6SM BKN015=

USA.gov is the U.S. government's official web portal to all federal, state and local government web resources and services.